sensor_id;sensor_type;location;lat;lon;timestamp;P1;P2;P0
64697;PMS5003;51124;53.394;-6.294;2023-04-28T00:00:28;11;10;
64697;PMS5003;51124;53.394;-6.294;2023-04-28T00:03:01;10;10;
64697;PMS5003;51124;53.394;-6.294;2023-04-28T00:05:37;10;10;
64697;PMS5003;51124;53.394;-6.294;2023-04-28T00:08:04;10;9;
64697;PMS5003;51124;53.394;-6.294;2023-04-28T00:10:32;9;8;
64697;PMS5003;51124;53.394;-6.294;2023-04-28T00:12:59;11;10;
64697;PMS5003;51124;53.394;-6.294;2023-04-28T00:15:26;11;10;
64697;PMS5003;51124;53.394;-6.294;2023-04-28T00:17:54;8;8;
64697;PMS5003;51124;53.394;-6.294;2023-04-28T00:20:21;7;7;
64697;PMS5003;51124;53.394;-6.294;2023-04-28T00:22:48;7;6;
64697;PMS5003;51124;53.394;-6.294;2023-04-28T00:25:15;10;9;
64697;PMS5003;51124;53.394;-6.294;2023-04-28T00:27:43;8;6;
64697;PMS5003;51124;53.394;-6.294;2023-04-28T00:30:10;8;8;
64697;PMS5003;51124;53.394;-6.294;2023-04-28T00:32:38;9;9;
64697;PMS5003;51124;53.394;-6.294;2023-04-28T00:35:05;9;9;
64697;PMS5003;51124;53.394;-6.294;2023-04-28T00:37:34;6;6;
64697;PMS5003;51124;53.394;-6.294;2023-04-28T00:40:02;5;5;
64697;PMS5003;51124;53.394;-6.294;2023-04-28T00:42:30;10;9;
64697;PMS5003;51124;53.394;-6.294;2023-04-28T00:44:58;7;7;
64697;PMS5003;51124;53.394;-6.294;2023-04-28T00:47:25;8;8;
64697;PMS5003;51124;53.394;-6.294;2023-04-28T00:49:52;8;8;
64697;PMS5003;51124;53.394;-6.294;2023-04-28T00:52:20;12;9;
64697;PMS5003;51124;53.394;-6.294;2023-04-28T00:54:47;9;9;
64697;PMS5003;51124;53.394;-6.294;2023-04-28T00:57:14;10;9;
64697;PMS5003;51124;53.394;-6.294;2023-04-28T00:59:42;8;8;
64697;PMS5003;51124;53.394;-6.294;2023-04-28T01:02:09;5;5;
64697;PMS5003;51124;53.394;-6.294;2023-04-28T01:04:37;8;7;
64697;PMS5003;51124;53.394;-6.294;2023-04-28T01:07:05;8;8;
64697;PMS5003;51124;53.394;-6.294;2023-04-28T01:09:33;7;7;
64697;PMS5003;51124;53.394;-6.294;2023-04-28T01:12:00;8;8;
64697;PMS5003;51124;53.394;-6.294;2023-04-28T01:14:28;8;8;
64697;PMS5003;51124;53.394;-6.294;2023-04-28T01:16:55;8;7;
64697;PMS5003;51124;53.394;-6.294;2023-04-28T01:19:23;5;5;
64697;PMS5003;51124;53.394;-6.294;2023-04-28T01:21:51;10;8;
64697;PMS5003;51124;53.394;-6.294;2023-04-28T01:24:18;8;7;
64697;PMS5003;51124;53.394;-6.294;2023-04-28T01:26:45;7;7;
64697;PMS5003;51124;53.394;-6.294;2023-04-28T01:29:13;7;7;
64697;PMS5003;51124;53.394;-6.294;2023-04-28T01:31:40;7;6;
64697;PMS5003;51124;53.394;-6.294;2023-04-28T01:34:08;8;6;
64697;PMS5003;51124;53.394;-6.294;2023-04-28T01:36:35;5;5;
64697;PMS5003;51124;53.394;-6.294;2023-04-28T01:39:03;7;7;
64697;PMS5003;51124;53.394;-6.294;2023-04-28T01:41:31;8;8;
64697;PMS5003;51124;53.394;-6.294;2023-04-28T01:43:58;9;7;
64697;PMS5003;51124;53.394;-6.294;2023-04-28T01:46:25;6;6;
64697;PMS5003;51124;53.394;-6.294;2023-04-28T01:48:52;9;7;
64697;PMS5003;51124;53.394;-6.294;2023-04-28T01:51:20;7;7;
64697;PMS5003;51124;53.394;-6.294;2023-04-28T01:53:47;6;6;
64697;PMS5003;51124;53.394;-6.294;2023-04-28T01:56:14;6;6;
64697;PMS5003;51124;53.394;-6.294;2023-04-28T01:58:42;6;6;
64697;PMS5003;51124;53.394;-6.294;2023-04-28T02:01:09;8;7;
64697;PMS5003;51124;53.394;-6.294;2023-04-28T02:03:36;6;6;
64697;PMS5003;51124;53.394;-6.294;2023-04-28T02:06:04;7;7;
64697;PMS5003;51124;53.394;-6.294;2023-04-28T02:08:31;7;7;
64697;PMS5003;51124;53.394;-6.294;2023-04-28T02:10:58;8;6;
64697;PMS5003;51124;53.394;-6.294;2023-04-28T02:13:25;5;5;
64697;PMS5003;51124;53.394;-6.294;2023-04-28T02:15:52;6;6;
64697;PMS5003;51124;53.394;-6.294;2023-04-28T02:18:20;8;8;
64697;PMS5003;51124;53.394;-6.294;2023-04-28T02:20:47;9;8;
64697;PMS5003;51124;53.394;-6.294;2023-04-28T02:23:14;8;8;
64697;PMS5003;51124;53.394;-6.294;2023-04-28T02:25:42;7;7;
64697;PMS5003;51124;53.394;-6.294;2023-04-28T02:28:09;7;7;
64697;PMS5003;51124;53.394;-6.294;2023-04-28T02:30:36;8;8;
64697;PMS5003;51124;53.394;-6.294;2023-04-28T02:33:03;8;8;
64697;PMS5003;51124;53.394;-6.294;2023-04-28T02:35:30;8;8;
64697;PMS5003;51124;53.394;-6.294;2023-04-28T02:37:58;8;6;
64697;PMS5003;51124;53.394;-6.294;2023-04-28T02:40:25;6;6;
64697;PMS5003;51124;53.394;-6.294;2023-04-28T02:42:52;10;9;
64697;PMS5003;51124;53.394;-6.294;2023-04-28T02:45:19;7;7;
64697;PMS5003;51124;53.394;-6.294;2023-04-28T02:47:47;7;7;
64697;PMS5003;51124;53.394;-6.294;2023-04-28T02:50:14;6;6;
64697;PMS5003;51124;53.394;-6.294;2023-04-28T02:52:41;8;6;
64697;PMS5003;51124;53.394;-6.294;2023-04-28T02:55:09;7;7;
64697;PMS5003;51124;53.394;-6.294;2023-04-28T02:57:36;6;6;
64697;PMS5003;51124;53.394;-6.294;2023-04-28T03:00:03;8;8;
64697;PMS5003;51124;53.394;-6.294;2023-04-28T03:02:32;7;7;
64697;PMS5003;51124;53.394;-6.294;2023-04-28T03:04:59;7;7;
64697;PMS5003;51124;53.394;-6.294;2023-04-28T03:07:26;7;7;
64697;PMS5003;51124;53.394;-6.294;2023-04-28T03:09:53;6;6;
64697;PMS5003;51124;53.394;-6.294;2023-04-28T03:12:20;5;5;
64697;PMS5003;51124;53.394;-6.294;2023-04-28T03:14:49;6;6;
64697;PMS5003;51124;53.394;-6.294;2023-04-28T03:17:16;8;8;
64697;PMS5003;51124;53.394;-6.294;2023-04-28T03:19:44;11;9;
64697;PMS5003;51124;53.394;-6.294;2023-04-28T03:22:11;4;4;
64697;PMS5003;51124;53.394;-6.294;2023-04-28T03:24:38;6;6;
64697;PMS5003;51124;53.394;-6.294;2023-04-28T03:27:05;6;6;
64697;PMS5003;51124;53.394;-6.294;2023-04-28T03:29:32;6;6;
64697;PMS5003;51124;53.394;-6.294;2023-04-28T03:32:00;8;7;
64697;PMS5003;51124;53.394;-6.294;2023-04-28T03:34:27;7;6;
64697;PMS5003;51124;53.394;-6.294;2023-04-28T03:36:54;8;6;
64697;PMS5003;51124;53.394;-6.294;2023-04-28T03:39:21;7;7;
64697;PMS5003;51124;53.394;-6.294;2023-04-28T03:41:49;6;6;
64697;PMS5003;51124;53.394;-6.294;2023-04-28T03:44:16;6;6;
64697;PMS5003;51124;53.394;-6.294;2023-04-28T03:46:43;7;7;
64697;PMS5003;51124;53.394;-6.294;2023-04-28T03:49:10;5;5;
64697;PMS5003;51124;53.394;-6.294;2023-04-28T03:51:38;6;6;
64697;PMS5003;51124;53.394;-6.294;2023-04-28T03:54:05;6;6;
64697;PMS5003;51124;53.394;-6.294;2023-04-28T03:56:33;9;9;
64697;PMS5003;51124;53.394;-6.294;2023-04-28T03:59:00;6;6;
64697;PMS5003;51124;53.394;-6.294;2023-04-28T04:01:28;8;6;
64697;PMS5003;51124;53.394;-6.294;2023-04-28T04:03:55;7;7;
64697;PMS5003;51124;53.394;-6.294;2023-04-28T04:06:23;6;6;
64697;PMS5003;51124;53.394;-6.294;2023-04-28T04:08:50;7;7;
64697;PMS5003;51124;53.394;-6.294;2023-04-28T04:11:18;8;8;
64697;PMS5003;51124;53.394;-6.294;2023-04-28T04:13:45;6;6;
64697;PMS5003;51124;53.394;-6.294;2023-04-28T04:16:13;6;6;
64697;PMS5003;51124;53.394;-6.294;2023-04-28T04:18:40;6;6;
64697;PMS5003;51124;53.394;-6.294;2023-04-28T04:21:08;6;6;
64697;PMS5003;51124;53.394;-6.294;2023-04-28T04:23:35;8;7;
64697;PMS5003;51124;53.394;-6.294;2023-04-28T04:26:03;7;7;
64697;PMS5003;51124;53.394;-6.294;2023-04-28T04:28:30;5;5;
64697;PMS5003;51124;53.394;-6.294;2023-04-28T04:30:58;7;5;
64697;PMS5003;51124;53.394;-6.294;2023-04-28T04:33:25;5;5;
64697;PMS5003;51124;53.394;-6.294;2023-04-28T04:35:52;5;5;
64697;PMS5003;51124;53.394;-6.294;2023-04-28T04:38:20;5;5;
64697;PMS5003;51124;53.394;-6.294;2023-04-28T04:40:47;7;7;
64697;PMS5003;51124;53.394;-6.294;2023-04-28T04:43:14;5;5;
64697;PMS5003;51124;53.394;-6.294;2023-04-28T04:45:42;6;5;
64697;PMS5003;51124;53.394;-6.294;2023-04-28T04:48:09;7;6;
64697;PMS5003;51124;53.394;-6.294;2023-04-28T04:50:36;4;4;
64697;PMS5003;51124;53.394;-6.294;2023-04-28T04:53:04;6;6;
64697;PMS5003;51124;53.394;-6.294;2023-04-28T04:55:31;6;6;
64697;PMS5003;51124;53.394;-6.294;2023-04-28T04:57:58;6;6;
64697;PMS5003;51124;53.394;-6.294;2023-04-28T05:00:26;8;8;
64697;PMS5003;51124;53.394;-6.294;2023-04-28T05:02:53;5;5;
64697;PMS5003;51124;53.394;-6.294;2023-04-28T05:05:20;5;5;
64697;PMS5003;51124;53.394;-6.294;2023-04-28T05:07:47;5;5;
64697;PMS5003;51124;53.394;-6.294;2023-04-28T05:10:15;3;3;
64697;PMS5003;51124;53.394;-6.294;2023-04-28T05:12:42;3;3;
64697;PMS5003;51124;53.394;-6.294;2023-04-28T05:15:10;5;4;
64697;PMS5003;51124;53.394;-6.294;2023-04-28T05:17:37;6;6;
64697;PMS5003;51124;53.394;-6.294;2023-04-28T05:20:05;7;7;
64697;PMS5003;51124;53.394;-6.294;2023-04-28T05:22:33;4;4;
64697;PMS5003;51124;53.394;-6.294;2023-04-28T05:25:00;5;5;
64697;PMS5003;51124;53.394;-6.294;2023-04-28T05:27:27;5;5;
64697;PMS5003;51124;53.394;-6.294;2023-04-28T05:29:55;5;5;
64697;PMS5003;51124;53.394;-6.294;2023-04-28T05:32:22;5;5;
64697;PMS5003;51124;53.394;-6.294;2023-04-28T05:34:49;3;3;
64697;PMS5003;51124;53.394;-6.294;2023-04-28T05:37:16;6;5;
64697;PMS5003;51124;53.394;-6.294;2023-04-28T05:39:43;7;7;
64697;PMS5003;51124;53.394;-6.294;2023-04-28T05:42:11;6;5;
64697;PMS5003;51124;53.394;-6.294;2023-04-28T05:44:38;5;5;
64697;PMS5003;51124;53.394;-6.294;2023-04-28T05:47:05;8;7;
64697;PMS5003;51124;53.394;-6.294;2023-04-28T05:49:32;5;5;
64697;PMS5003;51124;53.394;-6.294;2023-04-28T05:52:00;6;5;
64697;PMS5003;51124;53.394;-6.294;2023-04-28T05:54:28;6;5;
64697;PMS5003;51124;53.394;-6.294;2023-04-28T05:56:55;4;4;
64697;PMS5003;51124;53.394;-6.294;2023-04-28T05:59:21;8;8;
64697;PMS5003;51124;53.394;-6.294;2023-04-28T06:01:54;5;5;
64697;PMS5003;51124;53.394;-6.294;2023-04-28T06:04:28;6;5;
64697;PMS5003;51124;53.394;-6.294;2023-04-28T06:07:01;5;5;
64697;PMS5003;51124;53.394;-6.294;2023-04-28T06:09:34;5;5;
64697;PMS5003;51124;53.394;-6.294;2023-04-28T06:12:08;3;3;
64697;PMS5003;51124;53.394;-6.294;2023-04-28T06:14:41;5;5;
64697;PMS5003;51124;53.394;-6.294;2023-04-28T06:17:14;5;5;
64697;PMS5003;51124;53.394;-6.294;2023-04-28T06:19:47;4;4;
64697;PMS5003;51124;53.394;-6.294;2023-04-28T06:22:22;6;6;
64697;PMS5003;51124;53.394;-6.294;2023-04-28T06:24:55;5;5;
64697;PMS5003;51124;53.394;-6.294;2023-04-28T06:27:28;4;4;
64697;PMS5003;51124;53.394;-6.294;2023-04-28T06:30:02;5;5;
64697;PMS5003;51124;53.394;-6.294;2023-04-28T06:32:35;6;6;
64697;PMS5003;51124;53.394;-6.294;2023-04-28T06:35:09;4;4;
64697;PMS5003;51124;53.394;-6.294;2023-04-28T06:37:42;6;6;
64697;PMS5003;51124;53.394;-6.294;2023-04-28T06:40:16;4;4;
64697;PMS5003;51124;53.394;-6.294;2023-04-28T06:42:49;5;5;
64697;PMS5003;51124;53.394;-6.294;2023-04-28T06:45:23;5;5;
64697;PMS5003;51124;53.394;-6.294;2023-04-28T06:47:56;6;6;
64697;PMS5003;51124;53.394;-6.294;2023-04-28T06:50:29;5;5;
64697;PMS5003;51124;53.394;-6.294;2023-04-28T06:53:03;3;3;
64697;PMS5003;51124;53.394;-6.294;2023-04-28T06:55:36;6;6;
64697;PMS5003;51124;53.394;-6.294;2023-04-28T06:58:10;5;5;
64697;PMS5003;51124;53.394;-6.294;2023-04-28T07:00:43;4;4;
64697;PMS5003;51124;53.394;-6.294;2023-04-28T07:03:17;4;4;
64697;PMS5003;51124;53.394;-6.294;2023-04-28T07:05:51;3;3;
64697;PMS5003;51124;53.394;-6.294;2023-04-28T07:08:24;3;3;
64697;PMS5003;51124;53.394;-6.294;2023-04-28T07:10:58;6;6;
64697;PMS5003;51124;53.394;-6.294;2023-04-28T07:13:31;6;6;
64697;PMS5003;51124;53.394;-6.294;2023-04-28T07:16:05;5;5;
64697;PMS5003;51124;53.394;-6.294;2023-04-28T07:18:39;5;5;
64697;PMS5003;51124;53.394;-6.294;2023-04-28T07:21:12;4;4;
64697;PMS5003;51124;53.394;-6.294;2023-04-28T07:23:46;6;4;
64697;PMS5003;51124;53.394;-6.294;2023-04-28T07:26:20;6;4;
64697;PMS5003;51124;53.394;-6.294;2023-04-28T07:28:53;3;3;
64697;PMS5003;51124;53.394;-6.294;2023-04-28T07:31:27;5;5;
64697;PMS5003;51124;53.394;-6.294;2023-04-28T07:34:01;5;5;
64697;PMS5003;51124;53.394;-6.294;2023-04-28T07:36:34;4;4;
64697;PMS5003;51124;53.394;-6.294;2023-04-28T07:39:07;4;4;
64697;PMS5003;51124;53.394;-6.294;2023-04-28T07:41:41;4;4;
64697;PMS5003;51124;53.394;-6.294;2023-04-28T07:44:14;3;3;
64697;PMS5003;51124;53.394;-6.294;2023-04-28T07:46:48;5;5;
64697;PMS5003;51124;53.394;-6.294;2023-04-28T07:49:22;6;5;
64697;PMS5003;51124;53.394;-6.294;2023-04-28T07:51:57;4;4;
64697;PMS5003;51124;53.394;-6.294;2023-04-28T07:54:30;4;4;
64697;PMS5003;51124;53.394;-6.294;2023-04-28T07:57:03;5;5;
64697;PMS5003;51124;53.394;-6.294;2023-04-28T07:59:37;6;5;
64697;PMS5003;51124;53.394;-6.294;2023-04-28T08:02:10;7;6;
64697;PMS5003;51124;53.394;-6.294;2023-04-28T08:04:43;5;5;
64697;PMS5003;51124;53.394;-6.294;2023-04-28T08:07:17;5;5;
64697;PMS5003;51124;53.394;-6.294;2023-04-28T08:09:50;6;6;
64697;PMS5003;51124;53.394;-6.294;2023-04-28T08:12:24;4;4;
64697;PMS5003;51124;53.394;-6.294;2023-04-28T08:14:57;6;6;
64697;PMS5003;51124;53.394;-6.294;2023-04-28T08:17:30;4;4;
64697;PMS5003;51124;53.394;-6.294;2023-04-28T08:20:04;5;5;
64697;PMS5003;51124;53.394;-6.294;2023-04-28T08:22:38;5;5;
64697;PMS5003;51124;53.394;-6.294;2023-04-28T08:25:12;5;5;
64697;PMS5003;51124;53.394;-6.294;2023-04-28T08:27:46;4;3;
64697;PMS5003;51124;53.394;-6.294;2023-04-28T08:30:19;4;4;
64697;PMS5003;51124;53.394;-6.294;2023-04-28T08:32:52;4;4;
64697;PMS5003;51124;53.394;-6.294;2023-04-28T08:35:26;5;5;
64697;PMS5003;51124;53.394;-6.294;2023-04-28T08:37:59;4;4;
64697;PMS5003;51124;53.394;-6.294;2023-04-28T08:40:33;4;4;
64697;PMS5003;51124;53.394;-6.294;2023-04-28T08:43:06;5;5;
64697;PMS5003;51124;53.394;-6.294;2023-04-28T08:45:40;6;6;
64697;PMS5003;51124;53.394;-6.294;2023-04-28T08:48:16;3;3;
64697;PMS5003;51124;53.394;-6.294;2023-04-28T08:50:40;4;4;
64697;PMS5003;51124;53.394;-6.294;2023-04-28T08:53:05;4;4;
64697;PMS5003;51124;53.394;-6.294;2023-04-28T08:55:39;4;4;
64697;PMS5003;51124;53.394;-6.294;2023-04-28T08:58:13;5;5;
64697;PMS5003;51124;53.394;-6.294;2023-04-28T09:00:47;5;5;
64697;PMS5003;51124;53.394;-6.294;2023-04-28T09:03:20;5;5;
64697;PMS5003;51124;53.394;-6.294;2023-04-28T09:05:53;5;5;
64697;PMS5003;51124;53.394;-6.294;2023-04-28T09:08:27;5;5;
64697;PMS5003;51124;53.394;-6.294;2023-04-28T09:11:08;5;4;
64697;PMS5003;51124;53.394;-6.294;2023-04-28T09:13:32;3;3;
64697;PMS5003;51124;53.394;-6.294;2023-04-28T09:16:06;5;5;
64697;PMS5003;51124;53.394;-6.294;2023-04-28T09:18:39;5;5;
64697;PMS5003;51124;53.394;-6.294;2023-04-28T09:21:07;4;3;
64697;PMS5003;51124;53.394;-6.294;2023-04-28T09:23:45;5;5;
64697;PMS5003;51124;53.394;-6.294;2023-04-28T09:26:10;4;4;
64697;PMS5003;51124;53.394;-6.294;2023-04-28T09:28:43;4;4;
64697;PMS5003;51124;53.394;-6.294;2023-04-28T09:31:24;2;2;
64697;PMS5003;51124;53.394;-6.294;2023-04-28T09:33:55;2;2;
64697;PMS5003;51124;53.394;-6.294;2023-04-28T09:36:24;6;6;
64697;PMS5003;51124;53.394;-6.294;2023-04-28T09:38:48;5;5;
64697;PMS5003;51124;53.394;-6.294;2023-04-28T09:41:21;5;5;
64697;PMS5003;51124;53.394;-6.294;2023-04-28T09:43:47;4;4;
64697;PMS5003;51124;53.394;-6.294;2023-04-28T09:46:27;2;2;
64697;PMS5003;51124;53.394;-6.294;2023-04-28T09:48:51;5;5;
64697;PMS5003;51124;53.394;-6.294;2023-04-28T09:51:22;4;4;
64697;PMS5003;51124;53.394;-6.294;2023-04-28T09:53:58;4;4;
64697;PMS5003;51124;53.394;-6.294;2023-04-28T09:56:22;4;4;
64697;PMS5003;51124;53.394;-6.294;2023-04-28T09:58:49;4;4;
64697;PMS5003;51124;53.394;-6.294;2023-04-28T10:01:24;4;4;
64697;PMS5003;51124;53.394;-6.294;2023-04-28T10:03:59;4;4;
64697;PMS5003;51124;53.394;-6.294;2023-04-28T10:06:33;5;5;
64697;PMS5003;51124;53.394;-6.294;2023-04-28T10:09:07;3;3;
64697;PMS5003;51124;53.394;-6.294;2023-04-28T10:11:41;5;5;
64697;PMS5003;51124;53.394;-6.294;2023-04-28T10:14:15;6;6;
64697;PMS5003;51124;53.394;-6.294;2023-04-28T10:16:48;5;4;
64697;PMS5003;51124;53.394;-6.294;2023-04-28T10:19:22;4;4;
64697;PMS5003;51124;53.394;-6.294;2023-04-28T10:21:58;4;4;
64697;PMS5003;51124;53.394;-6.294;2023-04-28T10:24:30;3;3;
64697;PMS5003;51124;53.394;-6.294;2023-04-28T10:27:05;5;5;
64697;PMS5003;51124;53.394;-6.294;2023-04-28T10:29:31;6;5;
64697;PMS5003;51124;53.394;-6.294;2023-04-28T10:32:20;5;5;
64697;PMS5003;51124;53.394;-6.294;2023-04-28T10:34:35;4;4;
64697;PMS5003;51124;53.394;-6.294;2023-04-28T10:37:09;2;2;
64697;PMS5003;51124;53.394;-6.294;2023-04-28T10:40:48;4;4;
64697;PMS5003;51124;53.394;-6.294;2023-04-28T10:43:31;5;4;
64697;PMS5003;51124;53.394;-6.294;2023-04-28T10:44:45;6;5;
64697;PMS5003;51124;53.394;-6.294;2023-04-28T10:47:18;5;5;
64697;PMS5003;51124;53.394;-6.294;2023-04-28T10:50:08;2;2;
64697;PMS5003;51124;53.394;-6.294;2023-04-28T10:52:46;3;3;
64697;PMS5003;51124;53.394;-6.294;2023-04-28T10:55:25;3;3;
64697;PMS5003;51124;53.394;-6.294;2023-04-28T10:57:18;4;4;
64697;PMS5003;51124;53.394;-6.294;2023-04-28T10:59:52;4;4;
64697;PMS5003;51124;53.394;-6.294;2023-04-28T11:02:50;3;3;
64697;PMS5003;51124;53.394;-6.294;2023-04-28T11:05:24;4;4;
64697;PMS5003;51124;53.394;-6.294;2023-04-28T11:07:27;5;5;
64697;PMS5003;51124;53.394;-6.294;2023-04-28T11:10:00;4;4;
64697;PMS5003;51124;53.394;-6.294;2023-04-28T11:12:33;6;6;
64697;PMS5003;51124;53.394;-6.294;2023-04-28T11:15:11;4;4;
64697;PMS5003;51124;53.394;-6.294;2023-04-28T11:17:37;4;4;
64697;PMS5003;51124;53.394;-6.294;2023-04-28T11:20:03;3;3;
64697;PMS5003;51124;53.394;-6.294;2023-04-28T11:22:37;3;3;
64697;PMS5003;51124;53.394;-6.294;2023-04-28T11:25:11;4;4;
64697;PMS5003;51124;53.394;-6.294;2023-04-28T11:27:44;4;4;
64697;PMS5003;51124;53.394;-6.294;2023-04-28T11:30:18;4;4;
64697;PMS5003;51124;53.394;-6.294;2023-04-28T11:32:52;3;3;
64697;PMS5003;51124;53.394;-6.294;2023-04-28T11:35:31;3;3;
64697;PMS5003;51124;53.394;-6.294;2023-04-28T11:38:00;3;3;
64697;PMS5003;51124;53.394;-6.294;2023-04-28T11:40:23;3;3;
64697;PMS5003;51124;53.394;-6.294;2023-04-28T11:42:57;2;2;
64697;PMS5003;51124;53.394;-6.294;2023-04-28T11:45:30;2;2;
64697;PMS5003;51124;53.394;-6.294;2023-04-28T11:48:19;4;3;
64697;PMS5003;51124;53.394;-6.294;2023-04-28T11:50:35;3;3;
64697;PMS5003;51124;53.394;-6.294;2023-04-28T11:52:58;2;2;
64697;PMS5003;51124;53.394;-6.294;2023-04-28T11:55:32;3;3;
64697;PMS5003;51124;53.394;-6.294;2023-04-28T11:58:21;3;3;
64697;PMS5003;51124;53.394;-6.294;2023-04-28T12:00:34;3;3;
64697;PMS5003;51124;53.394;-6.294;2023-04-28T12:03:08;4;4;
64697;PMS5003;51124;53.394;-6.294;2023-04-28T12:05:43;2;2;
64697;PMS5003;51124;53.394;-6.294;2023-04-28T12:08:26;4;4;
64697;PMS5003;51124;53.394;-6.294;2023-04-28T12:11:05;5;4;
64697;PMS5003;51124;53.394;-6.294;2023-04-28T12:13:20;5;4;
64697;PMS5003;51124;53.394;-6.294;2023-04-28T12:15:44;5;4;
64697;PMS5003;51124;53.394;-6.294;2023-04-28T12:18:17;3;3;
64697;PMS5003;51124;53.394;-6.294;2023-04-28T12:20:51;3;3;
64697;PMS5003;51124;53.394;-6.294;2023-04-28T12:23:28;4;4;
64697;PMS5003;51124;53.394;-6.294;2023-04-28T12:25:52;4;4;
64697;PMS5003;51124;53.394;-6.294;2023-04-28T12:28:34;4;4;
64697;PMS5003;51124;53.394;-6.294;2023-04-28T12:31:31;2;2;
64697;PMS5003;51124;53.394;-6.294;2023-04-28T12:33:24;3;3;
64697;PMS5003;51124;53.394;-6.294;2023-04-28T12:35:49;3;3;
64697;PMS5003;51124;53.394;-6.294;2023-04-28T12:38:22;3;3;
64697;PMS5003;51124;53.394;-6.294;2023-04-28T12:40:56;3;3;
64697;PMS5003;51124;53.394;-6.294;2023-04-28T12:43:29;4;4;
64697;PMS5003;51124;53.394;-6.294;2023-04-28T12:46:03;4;4;
64697;PMS5003;51124;53.394;-6.294;2023-04-28T12:48:37;6;6;
64697;PMS5003;51124;53.394;-6.294;2023-04-28T12:51:10;6;5;
64697;PMS5003;51124;53.394;-6.294;2023-04-28T12:53:43;3;3;
64697;PMS5003;51124;53.394;-6.294;2023-04-28T12:56:17;5;4;
64697;PMS5003;51124;53.394;-6.294;2023-04-28T12:58:51;4;4;
64697;PMS5003;51124;53.394;-6.294;2023-04-28T13:01:24;3;3;
64697;PMS5003;51124;53.394;-6.294;2023-04-28T13:03:58;4;4;
64697;PMS5003;51124;53.394;-6.294;2023-04-28T13:06:31;3;3;
64697;PMS5003;51124;53.394;-6.294;2023-04-28T13:09:05;4;3;
64697;PMS5003;51124;53.394;-6.294;2023-04-28T13:11:39;2;2;
64697;PMS5003;51124;53.394;-6.294;2023-04-28T13:14:13;3;3;
64697;PMS5003;51124;53.394;-6.294;2023-04-28T13:16:46;4;4;
64697;PMS5003;51124;53.394;-6.294;2023-04-28T13:19:20;6;5;
64697;PMS5003;51124;53.394;-6.294;2023-04-28T13:21:54;6;4;
64697;PMS5003;51124;53.394;-6.294;2023-04-28T13:24:28;4;4;
64697;PMS5003;51124;53.394;-6.294;2023-04-28T13:27:04;3;3;
64697;PMS5003;51124;53.394;-6.294;2023-04-28T13:29:28;3;3;
64697;PMS5003;51124;53.394;-6.294;2023-04-28T13:32:04;7;5;
64697;PMS5003;51124;53.394;-6.294;2023-04-28T13:34:28;2;2;
64697;PMS5003;51124;53.394;-6.294;2023-04-28T13:37:02;4;4;
64697;PMS5003;51124;53.394;-6.294;2023-04-28T13:39:35;3;3;
64697;PMS5003;51124;53.394;-6.294;2023-04-28T13:42:10;3;3;
64697;PMS5003;51124;53.394;-6.294;2023-04-28T13:44:43;5;5;
64697;PMS5003;51124;53.394;-6.294;2023-04-28T13:47:17;4;4;
64697;PMS5003;51124;53.394;-6.294;2023-04-28T13:49:51;4;4;
64697;PMS5003;51124;53.394;-6.294;2023-04-28T13:52:24;3;3;
64697;PMS5003;51124;53.394;-6.294;2023-04-28T13:54:58;3;3;
64697;PMS5003;51124;53.394;-6.294;2023-04-28T13:57:40;3;3;
64697;PMS5003;51124;53.394;-6.294;2023-04-28T14:00:05;3;3;
64697;PMS5003;51124;53.394;-6.294;2023-04-28T14:02:29;4;4;
64697;PMS5003;51124;53.394;-6.294;2023-04-28T14:05:03;4;4;
64697;PMS5003;51124;53.394;-6.294;2023-04-28T14:07:37;3;3;
64697;PMS5003;51124;53.394;-6.294;2023-04-28T14:10:10;4;4;
64697;PMS5003;51124;53.394;-6.294;2023-04-28T14:12:44;5;5;
64697;PMS5003;51124;53.394;-6.294;2023-04-28T14:15:19;6;4;
64697;PMS5003;51124;53.394;-6.294;2023-04-28T14:17:52;6;6;
64697;PMS5003;51124;53.394;-6.294;2023-04-28T14:20:26;5;5;
64697;PMS5003;51124;53.394;-6.294;2023-04-28T14:22:59;5;5;
64697;PMS5003;51124;53.394;-6.294;2023-04-28T14:25:32;5;5;
64697;PMS5003;51124;53.394;-6.294;2023-04-28T14:28:06;5;5;
64697;PMS5003;51124;53.394;-6.294;2023-04-28T14:30:39;5;5;
64697;PMS5003;51124;53.394;-6.294;2023-04-28T14:33:13;7;7;
64697;PMS5003;51124;53.394;-6.294;2023-04-28T14:35:46;5;5;
64697;PMS5003;51124;53.394;-6.294;2023-04-28T14:38:20;4;4;
64697;PMS5003;51124;53.394;-6.294;2023-04-28T14:40:53;5;5;
64697;PMS5003;51124;53.394;-6.294;2023-04-28T14:43:26;5;5;
64697;PMS5003;51124;53.394;-6.294;2023-04-28T14:46:00;6;6;
64697;PMS5003;51124;53.394;-6.294;2023-04-28T14:48:33;7;7;
64697;PMS5003;51124;53.394;-6.294;2023-04-28T14:51:08;5;5;
64697;PMS5003;51124;53.394;-6.294;2023-04-28T14:53:41;4;4;
64697;PMS5003;51124;53.394;-6.294;2023-04-28T14:56:15;5;5;
64697;PMS5003;51124;53.394;-6.294;2023-04-28T14:58:49;7;7;
64697;PMS5003;51124;53.394;-6.294;2023-04-28T15:01:22;5;5;
64697;PMS5003;51124;53.394;-6.294;2023-04-28T15:03:56;7;7;
64697;PMS5003;51124;53.394;-6.294;2023-04-28T15:06:29;5;5;
64697;PMS5003;51124;53.394;-6.294;2023-04-28T15:09:03;6;6;
64697;PMS5003;51124;53.394;-6.294;2023-04-28T15:11:36;6;6;
64697;PMS5003;51124;53.394;-6.294;2023-04-28T15:14:10;3;3;
64697;PMS5003;51124;53.394;-6.294;2023-04-28T15:16:44;4;4;
64697;PMS5003;51124;53.394;-6.294;2023-04-28T15:19:18;4;4;
64697;PMS5003;51124;53.394;-6.294;2023-04-28T15:21:51;7;7;
64697;PMS5003;51124;53.394;-6.294;2023-04-28T15:24:24;6;6;
64697;PMS5003;51124;53.394;-6.294;2023-04-28T15:26:58;6;6;
64697;PMS5003;51124;53.394;-6.294;2023-04-28T15:29:31;6;6;
64697;PMS5003;51124;53.394;-6.294;2023-04-28T15:32:05;6;6;
64697;PMS5003;51124;53.394;-6.294;2023-04-28T15:34:38;5;5;
64697;PMS5003;51124;53.394;-6.294;2023-04-28T15:37:37;7;7;
64697;PMS5003;51124;53.394;-6.294;2023-04-28T15:39:41;6;6;
64697;PMS5003;51124;53.394;-6.294;2023-04-28T15:42:15;5;5;
64697;PMS5003;51124;53.394;-6.294;2023-04-28T15:44:48;6;5;
64697;PMS5003;51124;53.394;-6.294;2023-04-28T15:47:22;6;6;
64697;PMS5003;51124;53.394;-6.294;2023-04-28T15:49:56;5;5;
64697;PMS5003;51124;53.394;-6.294;2023-04-28T15:52:29;6;6;
64697;PMS5003;51124;53.394;-6.294;2023-04-28T15:55:03;6;6;
64697;PMS5003;51124;53.394;-6.294;2023-04-28T15:57:37;6;6;
64697;PMS5003;51124;53.394;-6.294;2023-04-28T16:00:11;6;6;
64697;PMS5003;51124;53.394;-6.294;2023-04-28T16:02:46;8;7;
64697;PMS5003;51124;53.394;-6.294;2023-04-28T16:05:19;4;4;
64697;PMS5003;51124;53.394;-6.294;2023-04-28T16:07:52;6;6;
64697;PMS5003;51124;53.394;-6.294;2023-04-28T16:10:26;5;5;
64697;PMS5003;51124;53.394;-6.294;2023-04-28T16:12:59;3;3;
64697;PMS5003;51124;53.394;-6.294;2023-04-28T16:15:33;6;4;
64697;PMS5003;51124;53.394;-6.294;2023-04-28T16:18:07;5;5;
64697;PMS5003;51124;53.394;-6.294;2023-04-28T16:20:41;4;4;
64697;PMS5003;51124;53.394;-6.294;2023-04-28T16:23:14;8;6;
64697;PMS5003;51124;53.394;-6.294;2023-04-28T16:25:48;7;6;
64697;PMS5003;51124;53.394;-6.294;2023-04-28T16:28:21;4;4;
64697;PMS5003;51124;53.394;-6.294;2023-04-28T16:30:55;5;5;
64697;PMS5003;51124;53.394;-6.294;2023-04-28T16:33:29;5;4;
64697;PMS5003;51124;53.394;-6.294;2023-04-28T16:36:02;6;5;
64697;PMS5003;51124;53.394;-6.294;2023-04-28T16:38:36;6;6;
64697;PMS5003;51124;53.394;-6.294;2023-04-28T16:41:10;6;5;
64697;PMS5003;51124;53.394;-6.294;2023-04-28T16:43:43;7;5;
64697;PMS5003;51124;53.394;-6.294;2023-04-28T16:46:17;7;7;
64697;PMS5003;51124;53.394;-6.294;2023-04-28T16:48:50;5;5;
64697;PMS5003;51124;53.394;-6.294;2023-04-28T16:51:24;6;6;
64697;PMS5003;51124;53.394;-6.294;2023-04-28T16:53:57;6;6;
64697;PMS5003;51124;53.394;-6.294;2023-04-28T16:56:31;7;6;